logo
Search for airport 
image banner adimage banner adimage banner ad
image banner ad

VOML - Mangaluru International Airport

Located in Mangaluru, India

ICAO - VOML, IATA - IXE

Data provided by Airmate  

General information

Coordinates: N12°57'43" E74°53'23"
Elevation is 320 feet MSL.
 
View others Airports in Karnataka

Operational data

Special qualification required
Current time UTC:
Current local time:
Weather
METAR: VOML 152300Z 00000KT 6000 FEW015 27/24 Q1010 NOSIG
TAF: TAF VOML 152300Z 1600/1706 09005KT 6000 SCT015 TEMPO 1600/1603 5000 BR SCT012 BECMG 1606/1607 27010KT TEMPO 1609/1612 SCT012 SCT020 FEW025CB BKN080 BECMG 1622/1623 09005KT TEMPO 1700/1703 5000 BR SCT012
View NOTAMs / SUP AIP / TFR affecting this airport [VIEW]
Communications frequencies: [VIEW]

Runways:

RWY identifierQFULength (ft)Width (ft)SurfaceLDA (ft)
0658°8038151UNK
24238°8038151UNK

Airport contact information

Address: Mangaluru India

Satellite view of VOML